createdAt,value
2018-08-10T00:00:27.070Z,0
2018-08-10T00:01:07.564Z,0
2018-08-10T00:01:48.067Z,0
2018-08-10T00:02:28.539Z,0
2018-08-10T00:03:09.014Z,0
2018-08-10T00:03:49.499Z,0
2018-08-10T00:04:29.964Z,0
2018-08-10T00:05:10.488Z,0
2018-08-10T00:05:50.947Z,0
2018-08-10T00:06:31.478Z,0
2018-08-10T00:07:12.013Z,0
2018-08-10T00:07:52.457Z,0
2018-08-10T00:08:32.906Z,0
2018-08-10T00:09:13.423Z,0
2018-08-10T00:09:53.881Z,0
2018-08-10T00:10:34.363Z,0
2018-08-10T00:11:14.873Z,0
2018-08-10T00:11:55.378Z,0
2018-08-10T00:12:35.852Z,0
2018-08-10T00:13:16.350Z,0
2018-08-10T00:13:56.879Z,0
2018-08-10T00:14:37.354Z,0
2018-08-10T00:15:17.835Z,0
2018-08-10T00:15:58.367Z,0
2018-08-10T00:16:38.826Z,0
2018-08-10T00:17:19.382Z,0
2018-08-10T00:17:59.774Z,0
2018-08-10T00:18:40.295Z,0
2018-08-10T00:19:20.797Z,0
2018-08-10T00:20:01.285Z,0
2018-08-10T00:20:41.798Z,0
2018-08-10T00:21:22.277Z,0
2018-08-10T00:22:02.755Z,0
2018-08-10T00:22:43.244Z,0
2018-08-10T00:23:23.717Z,0
2018-08-10T00:24:04.212Z,0
2018-08-10T00:24:44.733Z,0
2018-08-10T00:25:25.197Z,0
2018-08-10T00:26:05.690Z,0
2018-08-10T00:26:46.219Z,0
2018-08-10T00:27:26.720Z,0
2018-08-10T00:28:07.182Z,0
2018-08-10T00:28:47.714Z,0
2018-08-10T00:29:28.212Z,0
2018-08-10T00:30:08.667Z,0
2018-08-10T00:30:49.150Z,0
2018-08-10T00:31:29.692Z,0
2018-08-10T00:32:10.196Z,0
2018-08-10T00:32:50.647Z,0
2018-08-10T00:33:31.166Z,0
2018-08-10T00:34:11.611Z,0
2018-08-10T00:34:52.092Z,0
2018-08-10T00:35:32.597Z,0
2018-08-10T00:36:13.114Z,0
2018-08-10T00:36:53.535Z,0
2018-08-10T00:37:34.059Z,0
2018-08-10T00:38:14.569Z,0
2018-08-10T00:38:55.062Z,0
2018-08-10T00:39:35.552Z,0
2018-08-10T00:40:16.084Z,0
2018-08-10T00:40:56.532Z,0
2018-08-10T00:41:37.088Z,0
2018-08-10T00:42:17.558Z,0
2018-08-10T00:42:58.043Z,0
2018-08-10T00:43:38.538Z,0
2018-08-10T00:44:19.009Z,0
2018-08-10T00:44:59.515Z,0
2018-08-10T00:45:40.014Z,0
2018-08-10T00:46:20.526Z,0
2018-08-10T00:47:01.013Z,0
2018-08-10T00:47:41.514Z,0
2018-08-10T00:48:21.976Z,0
2018-08-10T00:49:02.458Z,0
2018-08-10T00:49:42.962Z,0
2018-08-10T00:50:23.471Z,0
2018-08-10T00:51:03.964Z,0
2018-08-10T00:51:44.458Z,0
2018-08-10T00:52:24.925Z,0
2018-08-10T00:53:05.427Z,0
2018-08-10T00:53:45.945Z,0
2018-08-10T00:54:26.662Z,0
2018-08-10T00:55:07.188Z,0
2018-08-10T00:55:47.611Z,0
2018-08-10T00:56:28.141Z,0
2018-08-10T00:57:08.589Z,0
2018-08-10T00:57:49.062Z,0
2018-08-10T00:58:29.515Z,0
2018-08-10T00:59:09.994Z,0
2018-08-10T00:59:50.512Z,0
2018-08-10T01:00:31.019Z,0
2018-08-10T01:01:11.477Z,0
2018-08-10T01:01:51.975Z,0
2018-08-10T01:02:32.480Z,0
2018-08-10T01:03:12.977Z,0
2018-08-10T01:03:53.432Z,0
2018-08-10T01:04:33.933Z,0
2018-08-10T01:05:14.446Z,0
2018-08-10T01:05:54.933Z,0
2018-08-10T01:06:35.416Z,0
2018-08-10T01:07:15.941Z,0
2018-08-10T01:07:56.381Z,0
2018-08-10T01:08:36.849Z,0
2018-08-10T01:09:17.407Z,0
2018-08-10T01:09:57.875Z,0
2018-08-10T01:10:38.331Z,0
2018-08-10T01:11:18.850Z,0
2018-08-10T01:11:59.312Z,0
2018-08-10T01:12:39.830Z,0
2018-08-10T01:13:20.356Z,0
2018-08-10T01:14:00.821Z,0
2018-08-10T01:14:41.321Z,0
2018-08-10T01:15:21.747Z,0
2018-08-10T01:16:02.254Z,0
2018-08-10T01:16:42.806Z,0
2018-08-10T01:17:23.326Z,0
2018-08-10T01:18:03.791Z,0
2018-08-10T01:18:44.249Z,0
2018-08-10T01:19:24.828Z,0
2018-08-10T01:20:05.289Z,0
2018-08-10T01:20:45.740Z,0
2018-08-10T01:21:26.245Z,0
2018-08-10T01:22:06.733Z,0
2018-08-10T01:22:47.220Z,0
2018-08-10T01:23:27.684Z,0
2018-08-10T01:24:08.236Z,0
2018-08-10T01:24:48.687Z,0
2018-08-10T01:25:29.183Z,0
2018-08-10T01:26:09.642Z,0
2018-08-10T01:26:50.143Z,0
2018-08-10T01:27:30.624Z,0
2018-08-10T01:28:11.070Z,0
2018-08-10T01:28:51.756Z,0
2018-08-10T01:29:32.167Z,0
2018-08-10T01:30:12.633Z,0
2018-08-10T01:30:53.128Z,0
2018-08-10T01:31:33.614Z,0
2018-08-10T01:32:14.117Z,0
2018-08-10T01:32:54.618Z,0
2018-08-10T01:33:35.087Z,0
2018-08-10T01:34:15.614Z,0
2018-08-10T01:34:56.145Z,0
2018-08-10T01:35:36.622Z,0
2018-08-10T01:36:17.099Z,0
2018-08-10T01:36:57.604Z,0
2018-08-10T01:37:38.059Z,0
2018-08-10T01:38:18.533Z,0
2018-08-10T01:38:59.063Z,0
2018-08-10T01:39:39.549Z,0
2018-08-10T01:40:20.039Z,0
2018-08-10T01:41:00.530Z,0
2018-08-10T01:41:40.990Z,0
2018-08-10T01:42:21.452Z,0
2018-08-10T01:43:02.010Z,0
2018-08-10T01:43:42.585Z,0
2018-08-10T01:44:23.019Z,0
2018-08-10T01:45:03.568Z,0
2018-08-10T01:45:44.045Z,0
2018-08-10T01:46:24.512Z,0
2018-08-10T01:47:05.017Z,0
2018-08-10T01:47:45.479Z,0
2018-08-10T01:48:25.958Z,0
2018-08-10T01:49:06.495Z,0
2018-08-10T01:49:46.958Z,0
2018-08-10T01:50:27.472Z,0
2018-08-10T01:51:07.954Z,0
2018-08-10T01:51:48.509Z,0
2018-08-10T01:52:28.956Z,0
2018-08-10T01:53:09.436Z,0
2018-08-10T01:53:49.915Z,0
2018-08-10T01:54:30.408Z,0
2018-08-10T01:55:10.872Z,0
2018-08-10T01:55:51.370Z,0
2018-08-10T01:56:31.918Z,0
2018-08-10T01:57:12.470Z,0
2018-08-10T01:57:52.958Z,0
2018-08-10T01:58:33.505Z,0
2018-08-10T01:59:13.982Z,0
2018-08-10T01:59:54.469Z,0
2018-08-10T02:00:35.066Z,0
2018-08-10T02:01:15.571Z,0
2018-08-10T02:01:56.160Z,0
2018-08-10T02:02:36.668Z,0
2018-08-10T02:03:17.134Z,0
2018-08-10T02:03:57.664Z,0
2018-08-10T02:04:38.099Z,0
2018-08-10T02:05:18.650Z,0
2018-08-10T02:05:59.266Z,0
2018-08-10T02:06:39.715Z,0
2018-08-10T02:07:20.222Z,0
2018-08-10T02:08:00.702Z,0
2018-08-10T02:08:41.152Z,0
2018-08-10T02:09:21.667Z,0
2018-08-10T02:10:02.162Z,0
2018-08-10T02:10:42.663Z,0
2018-08-10T02:11:23.210Z,0
2018-08-10T02:12:03.695Z,0
2018-08-10T02:12:44.156Z,0
2018-08-10T02:13:24.655Z,0
2018-08-10T02:14:05.156Z,0
2018-08-10T02:14:45.618Z,0
2018-08-10T02:15:26.091Z,0
2018-08-10T02:16:06.639Z,0
2018-08-10T02:16:47.157Z,0
2018-08-10T02:17:27.604Z,0
2018-08-10T02:18:08.161Z,0
2018-08-10T02:18:48.689Z,0
2018-08-10T02:19:29.208Z,0
2018-08-10T02:20:09.653Z,0
2018-08-10T02:20:50.189Z,0
2018-08-10T02:21:30.603Z,0
2018-08-10T02:22:11.120Z,0
2018-08-10T02:22:51.651Z,0
2018-08-10T02:23:32.100Z,0
2018-08-10T02:24:12.606Z,0
2018-08-10T02:24:53.152Z,0
2018-08-10T02:25:33.679Z,0
2018-08-10T02:26:14.141Z,0
2018-08-10T02:26:54.810Z,0
2018-08-10T02:27:35.345Z,0
2018-08-10T02:28:15.803Z,0
2018-08-10T02:28:56.248Z,0
2018-08-10T02:29:36.797Z,0
2018-08-10T02:30:17.214Z,0
2018-08-10T02:30:57.727Z,0
2018-08-10T02:31:38.240Z,0
2018-08-10T02:32:18.672Z,0
2018-08-10T02:32:59.149Z,0
2018-08-10T02:33:39.641Z,0
2018-08-10T02:34:20.101Z,0
2018-08-10T02:35:00.682Z,0
2018-08-10T02:35:41.116Z,0
2018-08-10T02:36:21.869Z,0
2018-08-10T02:37:02.346Z,0
2018-08-10T02:37:42.888Z,0
2018-08-10T02:38:23.364Z,0
2018-08-10T02:39:03.853Z,0
2018-08-10T02:39:44.339Z,0
2018-08-10T02:40:24.886Z,0
2018-08-10T02:41:05.383Z,0
2018-08-10T02:41:45.878Z,0
2018-08-10T02:42:26.361Z,0
2018-08-10T02:43:07.160Z,0
2018-08-10T02:43:47.574Z,0
2018-08-10T02:44:28.126Z,0
2018-08-10T02:45:08.663Z,0
2018-08-10T02:45:49.072Z,0
2018-08-10T02:46:35.000Z,0
2018-08-10T02:47:15.467Z,0
2018-08-10T02:47:55.973Z,0
2018-08-10T02:48:36.483Z,0
2018-08-10T02:49:17.312Z,0
2018-08-10T02:49:57.764Z,0
2018-08-10T02:50:38.215Z,0
2018-08-10T02:51:18.717Z,0
2018-08-10T02:51:59.228Z,0
2018-08-10T02:52:39.778Z,0
2018-08-10T02:53:20.209Z,0
2018-08-10T02:54:00.710Z,0
2018-08-10T02:54:41.195Z,0
2018-08-10T02:55:21.698Z,0
2018-08-10T02:56:02.126Z,0
2018-08-10T02:56:42.660Z,0
2018-08-10T02:57:23.157Z,0
2018-08-10T02:58:03.635Z,0
2018-08-10T02:58:44.130Z,0
2018-08-10T02:59:24.587Z,0
2018-08-10T03:00:05.092Z,0
2018-08-10T03:00:45.555Z,0
2018-08-10T03:01:26.066Z,0
2018-08-10T03:02:06.516Z,0
2018-08-10T03:02:47.033Z,0
2018-08-10T03:03:27.481Z,0
2018-08-10T03:04:08.072Z,0
2018-08-10T03:04:48.647Z,0
2018-08-10T03:05:29.161Z,0
2018-08-10T03:06:09.703Z,0
2018-08-10T03:06:50.225Z,0
2018-08-10T03:07:30.721Z,0
2018-08-10T03:08:11.207Z,0
2018-08-10T03:08:51.681Z,0
2018-08-10T03:09:32.126Z,0
2018-08-10T03:10:12.659Z,0
2018-08-10T03:10:53.122Z,0
2018-08-10T03:11:33.638Z,0
2018-08-10T03:12:14.107Z,0
2018-08-10T03:12:54.623Z,0
2018-08-10T03:13:35.089Z,0
2018-08-10T03:14:15.572Z,0
2018-08-10T03:14:56.024Z,0
2018-08-10T03:15:36.648Z,0
2018-08-10T03:16:17.199Z,0
2018-08-10T03:16:57.701Z,0
2018-08-10T03:17:38.246Z,0
2018-08-10T03:18:18.723Z,0
2018-08-10T03:18:59.284Z,0
2018-08-10T03:19:39.756Z,0
2018-08-10T03:20:20.239Z,0
2018-08-10T03:21:00.850Z,0
2018-08-10T03:21:41.352Z,0
2018-08-10T03:22:21.842Z,0
2018-08-10T03:23:02.424Z,0
2018-08-10T03:23:42.866Z,0
2018-08-10T03:24:23.397Z,0
2018-08-10T03:25:03.850Z,0
2018-08-10T03:25:44.387Z,0
2018-08-10T03:26:24.840Z,0
2018-08-10T03:27:05.312Z,0
2018-08-10T03:27:45.794Z,0
2018-08-10T03:28:26.293Z,0
2018-08-10T03:29:06.758Z,0
2018-08-10T03:29:47.266Z,0
2018-08-10T03:30:27.794Z,0
2018-08-10T03:31:08.244Z,0
2018-08-10T03:31:48.737Z,0
2018-08-10T03:32:29.332Z,0
2018-08-10T03:33:09.834Z,0
2018-08-10T03:33:50.277Z,0
2018-08-10T03:34:30.762Z,0
2018-08-10T03:35:11.263Z,0
2018-08-10T03:35:51.736Z,0
2018-08-10T03:36:32.206Z,0
2018-08-10T03:37:12.709Z,0
2018-08-10T03:37:53.176Z,4
2018-08-10T03:38:33.680Z,4
2018-08-10T03:39:14.199Z,4
2018-08-10T03:39:54.726Z,0
2018-08-10T03:40:35.199Z,0
2018-08-10T03:41:15.696Z,0
2018-08-10T03:41:56.151Z,4
2018-08-10T03:42:36.631Z,4
2018-08-10T03:43:17.165Z,4
2018-08-10T03:43:57.617Z,4
2018-08-10T03:44:38.084Z,4
2018-08-10T03:45:18.586Z,4
2018-08-10T03:45:59.039Z,4
2018-08-10T03:46:39.527Z,4
2018-08-10T03:47:20.024Z,8
2018-08-10T03:48:00.493Z,4
2018-08-10T03:48:40.988Z,8
2018-08-10T03:49:21.476Z,8
2018-08-10T03:50:01.927Z,8
2018-08-10T03:50:42.483Z,12
2018-08-10T03:51:22.934Z,8
2018-08-10T03:52:03.415Z,12
2018-08-10T03:52:43.969Z,16
2018-08-10T03:53:24.431Z,16
2018-08-10T03:54:04.902Z,16
2018-08-10T03:54:45.714Z,16
2018-08-10T03:55:26.157Z,16
2018-08-10T03:56:06.673Z,16
2018-08-10T03:56:47.217Z,20
2018-08-10T03:57:27.627Z,16
2018-08-10T03:58:08.132Z,16
2018-08-10T03:58:48.607Z,20
2018-08-10T03:59:29.068Z,20
2018-08-10T04:00:09.570Z,20
2018-08-10T04:00:50.072Z,24
2018-08-10T04:01:30.569Z,24
2018-08-10T04:02:11.075Z,20
2018-08-10T04:02:51.537Z,24
2018-08-10T04:03:32.017Z,24
2018-08-10T04:04:12.523Z,24
2018-08-10T04:04:55.376Z,24
2018-08-10T04:06:53.592Z,32
2018-08-10T04:07:34.097Z,36
2018-08-10T04:08:14.905Z,44
2018-08-10T04:08:55.923Z,52
2018-08-10T04:09:36.385Z,68
2018-08-10T04:10:16.859Z,80
2018-08-10T04:10:57.328Z,92
2018-08-10T04:11:37.859Z,112
2018-08-10T04:12:18.294Z,128
2018-08-10T04:12:58.806Z,140
2018-08-10T04:13:39.297Z,160
2018-08-10T04:14:19.770Z,160
2018-08-10T04:15:00.300Z,164
2018-08-10T04:15:40.745Z,168
2018-08-10T04:16:21.281Z,188
2018-08-10T04:17:01.796Z,204
2018-08-10T04:17:42.255Z,212
2018-08-10T04:18:22.740Z,224
2018-08-10T04:19:03.235Z,236
2018-08-10T04:19:43.711Z,244
2018-08-10T04:20:24.197Z,252
2018-08-10T04:21:04.734Z,248
2018-08-10T04:21:45.245Z,236
2018-08-10T04:22:25.702Z,220
2018-08-10T04:23:06.240Z,220
2018-08-10T04:23:46.780Z,224
2018-08-10T04:24:27.212Z,212
2018-08-10T04:25:07.692Z,208
2018-08-10T04:25:48.184Z,208
2018-08-10T04:26:28.649Z,208
2018-08-10T04:27:09.146Z,204
2018-08-10T04:27:49.629Z,204
2018-08-10T04:28:30.104Z,212
2018-08-10T04:29:10.594Z,224
2018-08-10T04:29:51.113Z,232
2018-08-10T04:30:31.546Z,244
2018-08-10T04:31:12.049Z,256
2018-08-10T04:31:52.536Z,256
2018-08-10T04:32:33.027Z,260
2018-08-10T04:33:13.505Z,264
2018-08-10T04:33:54.045Z,272
2018-08-10T04:34:34.544Z,280
2018-08-10T04:35:15.021Z,300
2018-08-10T04:35:55.494Z,340
2018-08-10T04:36:36.008Z,380
2018-08-10T04:37:16.483Z,420
2018-08-10T04:37:56.937Z,464
2018-08-10T04:38:37.428Z,504
2018-08-10T04:39:17.926Z,544
2018-08-10T04:39:58.424Z,588
2018-08-10T04:40:38.919Z,624
2018-08-10T04:41:19.396Z,644
2018-08-10T04:41:59.895Z,644
2018-08-10T04:42:40.396Z,648
2018-08-10T04:43:20.910Z,664
2018-08-10T04:44:01.386Z,696
2018-08-10T04:44:41.902Z,728
2018-08-10T04:45:22.379Z,772
2018-08-10T04:46:02.875Z,816
2018-08-10T04:46:43.337Z,868
2018-08-10T04:47:23.806Z,932
2018-08-10T04:48:04.303Z,972
2018-08-10T04:48:44.750Z,996
2018-08-10T04:49:25.248Z,1028
2018-08-10T04:50:05.763Z,1128
2018-08-10T04:50:46.231Z,1160
2018-08-10T04:51:26.737Z,1132
2018-08-10T04:52:07.235Z,1128
2018-08-10T04:52:47.711Z,1160
2018-08-10T04:53:28.167Z,1208
2018-08-10T04:54:08.651Z,1256
2018-08-10T04:54:49.139Z,1296
2018-08-10T04:55:29.674Z,1320
2018-08-10T04:56:10.157Z,1336
2018-08-10T04:56:50.679Z,1348
2018-08-10T04:57:31.181Z,1344
2018-08-10T04:58:11.667Z,1348
2018-08-10T04:58:52.160Z,1376
2018-08-10T04:59:32.575Z,1396
2018-08-10T05:00:13.098Z,1420
2018-08-10T05:00:53.569Z,1436
2018-08-10T05:01:34.075Z,1420
2018-08-10T05:02:14.572Z,1384
2018-08-10T05:02:54.996Z,1380
2018-08-10T05:03:35.611Z,1416
2018-08-10T05:04:16.164Z,1416
2018-08-10T05:04:56.615Z,1464
2018-08-10T05:05:37.141Z,1472
2018-08-10T05:06:17.638Z,1508
2018-08-10T05:06:58.161Z,1568
2018-08-10T05:07:38.631Z,1612
2018-08-10T05:08:19.251Z,1692
2018-08-10T05:08:59.769Z,1744
2018-08-10T05:09:40.249Z,1784
2018-08-10T05:10:20.715Z,1820
2018-08-10T05:11:01.196Z,1864
2018-08-10T05:11:41.671Z,1900
2018-08-10T05:12:22.131Z,1928
2018-08-10T05:13:02.689Z,1932
2018-08-10T05:13:43.127Z,1888
2018-08-10T05:14:23.615Z,1860
2018-08-10T05:15:04.116Z,1872
2018-08-10T05:15:44.662Z,1892
2018-08-10T05:16:25.134Z,1920
2018-08-10T05:17:05.594Z,1916
2018-08-10T05:17:46.118Z,1864
2018-08-10T05:18:26.619Z,1784
2018-08-10T05:19:07.296Z,1732
2018-08-10T05:19:47.597Z,1728
2018-08-10T05:20:28.091Z,1748
2018-08-10T05:21:08.587Z,1768
2018-08-10T05:21:49.048Z,1808
2018-08-10T05:22:29.578Z,1824
2018-08-10T05:23:10.082Z,1844
2018-08-10T05:23:50.530Z,1864
2018-08-10T05:24:31.051Z,1880
2018-08-10T05:25:11.539Z,1888
2018-08-10T05:25:52.045Z,1920
2018-08-10T05:26:32.549Z,1904
2018-08-10T05:27:13.092Z,1880
2018-08-10T05:27:53.672Z,1844
2018-08-10T05:28:34.092Z,1836
2018-08-10T05:29:14.563Z,1832
2018-08-10T05:29:55.066Z,1836
2018-08-10T05:30:35.599Z,1864
2018-08-10T05:31:16.026Z,1872
2018-08-10T05:31:56.518Z,1888
2018-08-10T05:32:37.012Z,1916
2018-08-10T05:33:17.517Z,1936
2018-08-10T05:33:58.015Z,1948
2018-08-10T05:34:38.552Z,1964
2018-08-10T05:35:19.125Z,1976
2018-08-10T05:35:59.713Z,1972
2018-08-10T05:36:40.167Z,1980
2018-08-10T05:37:20.705Z,1996
2018-08-10T05:38:01.200Z,2004
2018-08-10T05:38:41.653Z,2016
2018-08-10T05:39:22.122Z,2036
2018-08-10T05:40:02.590Z,2072
2018-08-10T05:40:43.109Z,2120
2018-08-10T05:41:23.620Z,2124
2018-08-10T05:42:04.062Z,2100
2018-08-10T05:42:44.571Z,2104
2018-08-10T05:43:25.032Z,2116
2018-08-10T05:44:05.590Z,2204
2018-08-10T05:44:45.987Z,2232
2018-08-10T05:45:26.620Z,2396
2018-08-10T05:46:07.024Z,2700
2018-08-10T05:46:47.582Z,2728
2018-08-10T05:47:28.079Z,3048
2018-08-10T05:48:08.663Z,3724
2018-08-10T05:48:49.154Z,4628
2018-08-10T05:49:29.637Z,4456
2018-08-10T05:50:10.153Z,4780
2018-08-10T05:50:50.720Z,5404
2018-08-10T05:51:31.124Z,5356
2018-08-10T05:52:11.594Z,5364
2018-08-10T05:52:52.131Z,5360
2018-08-10T05:53:32.622Z,5260
2018-08-10T05:54:13.197Z,5136
2018-08-10T05:54:53.621Z,5048
2018-08-10T05:55:34.119Z,4988
2018-08-10T05:56:14.575Z,4904
2018-08-10T05:56:55.275Z,4796
2018-08-10T05:57:35.804Z,4596
2018-08-10T05:58:16.228Z,4380
2018-08-10T05:58:56.706Z,4208
2018-08-10T05:59:37.228Z,4080
2018-08-10T06:00:17.672Z,3932
2018-08-10T06:00:58.164Z,3788
2018-08-10T06:01:38.634Z,3692
2018-08-10T06:02:19.163Z,3596
2018-08-10T06:02:59.688Z,3504
2018-08-10T06:03:40.215Z,3392
2018-08-10T06:04:20.635Z,3304
2018-08-10T06:05:01.158Z,3216
2018-08-10T06:05:41.644Z,3192
2018-08-10T06:06:22.159Z,3208
2018-08-10T06:07:02.654Z,3300
2018-08-10T06:07:43.122Z,3440
2018-08-10T06:08:23.594Z,3608
2018-08-10T06:09:04.258Z,3772
2018-08-10T06:09:44.634Z,3912
2018-08-10T06:10:25.109Z,4060
2018-08-10T06:11:05.595Z,4224
2018-08-10T06:11:46.143Z,4320
2018-08-10T06:12:26.591Z,4424
2018-08-10T06:13:07.106Z,4516
2018-08-10T06:13:47.599Z,4568
2018-08-10T06:14:28.080Z,4564
2018-08-10T06:15:08.555Z,4572
2018-08-10T06:15:49.007Z,4544
2018-08-10T06:16:29.496Z,4504
2018-08-10T06:17:09.948Z,4424
2018-08-10T06:17:50.464Z,4436
2018-08-10T06:18:30.945Z,4440
2018-08-10T06:19:11.448Z,4600
2018-08-10T06:19:51.927Z,4580
2018-08-10T06:20:32.488Z,4372
2018-08-10T06:21:12.912Z,4124
2018-08-10T06:21:53.460Z,3916
2018-08-10T06:22:33.976Z,3736
2018-08-10T06:23:14.379Z,3568
2018-08-10T06:23:54.911Z,3444
2018-08-10T06:24:35.375Z,3348
2018-08-10T06:25:15.859Z,3256
2018-08-10T06:25:56.340Z,3224
2018-08-10T06:26:36.833Z,3464
2018-08-10T06:27:17.291Z,3616
2018-08-10T06:27:57.788Z,3576
2018-08-10T06:28:38.310Z,3540
2018-08-10T06:29:18.875Z,3464
2018-08-10T06:29:59.317Z,3412
2018-08-10T06:30:39.823Z,3464
2018-08-10T06:31:20.389Z,3688
2018-08-10T06:32:00.791Z,3832
2018-08-10T06:32:41.318Z,3924
2018-08-10T06:33:21.749Z,3852
2018-08-10T06:34:02.375Z,3712
2018-08-10T06:34:42.722Z,3612
2018-08-10T06:35:23.255Z,3604
2018-08-10T06:36:03.742Z,3588
2018-08-10T06:36:44.256Z,3740
2018-08-10T06:37:24.714Z,3540
2018-08-10T06:38:05.310Z,3752
2018-08-10T06:38:45.688Z,3612
2018-08-10T06:39:26.182Z,3504
2018-08-10T06:40:06.655Z,3164
2018-08-10T06:40:47.213Z,3564
2018-08-10T06:41:27.711Z,3828
2018-08-10T06:42:08.199Z,4136
2018-08-10T06:42:48.720Z,4560
2018-08-10T06:43:29.202Z,4544
2018-08-10T06:44:09.682Z,4220
2018-08-10T06:44:50.179Z,4128
2018-08-10T06:45:30.696Z,4324
2018-08-10T06:46:11.187Z,4576
2018-08-10T06:46:51.676Z,4848
2018-08-10T06:47:32.132Z,5132
2018-08-10T06:48:12.618Z,4608
2018-08-10T06:48:53.088Z,4068
2018-08-10T06:49:33.618Z,4604
2018-08-10T06:50:14.212Z,6144
2018-08-10T06:50:54.718Z,6396
2018-08-10T06:51:35.179Z,6296
2018-08-10T06:52:15.679Z,6356
2018-08-10T06:52:56.182Z,6252
2018-08-10T06:53:36.614Z,6140
2018-08-10T06:54:17.164Z,6040
2018-08-10T06:54:57.636Z,5980
2018-08-10T06:55:38.192Z,4056
2018-08-10T06:56:18.634Z,6092
2018-08-10T06:56:59.093Z,6136
2018-08-10T06:57:39.599Z,6180
2018-08-10T06:58:20.088Z,6244
2018-08-10T06:59:00.585Z,6436
2018-08-10T06:59:41.057Z,6856
2018-08-10T07:00:21.564Z,6556
2018-08-10T07:01:02.160Z,4444
2018-08-10T07:01:42.567Z,6796
2018-08-10T07:02:23.063Z,6548
2018-08-10T07:03:03.524Z,6556
2018-08-10T07:03:44.089Z,6688
2018-08-10T07:04:24.580Z,6812
2018-08-10T07:05:05.075Z,6940
2018-08-10T07:05:45.573Z,7116
2018-08-10T07:06:35.078Z,7256
2018-08-10T07:07:15.557Z,7340
2018-08-10T07:07:57.258Z,7340
2018-08-10T07:08:37.677Z,7340
2018-08-10T07:09:18.141Z,6720
2018-08-10T07:09:58.669Z,6804
2018-08-10T07:10:39.142Z,7244
2018-08-10T07:11:19.649Z,7244
2018-08-10T07:12:00.124Z,6940
2018-08-10T07:12:40.651Z,6852
2018-08-10T07:13:21.278Z,7140
2018-08-10T07:14:01.580Z,5704
2018-08-10T07:14:42.097Z,6428
2018-08-10T07:15:22.700Z,4348
2018-08-10T07:16:03.100Z,4284
2018-08-10T07:16:43.579Z,3940
2018-08-10T07:17:24.033Z,3628
2018-08-10T07:18:04.545Z,4120
2018-08-10T07:18:45.076Z,5580
2018-08-10T07:19:25.548Z,3600
2018-08-10T07:20:06.021Z,3492
2018-08-10T07:20:46.501Z,4660
2018-08-10T07:21:26.986Z,6784
2018-08-10T07:22:07.468Z,6876
2018-08-10T07:22:47.975Z,6952
2018-08-10T07:23:28.838Z,7020
2018-08-10T07:24:09.340Z,7080
2018-08-10T07:24:49.810Z,7216
2018-08-10T07:25:30.290Z,7240
2018-08-10T07:26:10.783Z,7376
2018-08-10T07:26:51.293Z,7568
2018-08-10T07:27:31.818Z,7716
2018-08-10T07:28:12.594Z,7652
2018-08-10T07:28:53.083Z,7820
2018-08-10T07:29:33.569Z,8316
2018-08-10T07:30:18.703Z,8536
2018-08-10T07:30:59.170Z,8356
2018-08-10T07:31:39.847Z,8024
2018-08-10T07:32:20.220Z,7604
2018-08-10T07:33:00.733Z,5148
2018-08-10T07:33:41.223Z,5404
2018-08-10T07:34:21.748Z,5092
2018-08-10T07:35:02.188Z,4984
2018-08-10T07:35:42.685Z,4768
2018-08-10T07:36:23.200Z,4300
2018-08-10T07:37:06.096Z,4048
2018-08-10T07:37:48.156Z,7104
2018-08-10T07:38:28.859Z,5224
2018-08-10T07:39:09.350Z,6636
2018-08-10T07:39:49.827Z,7632
2018-08-10T07:40:30.283Z,5340
2018-08-10T07:41:10.819Z,5260
2018-08-10T07:41:51.575Z,4916
2018-08-10T07:42:31.936Z,4888
2018-08-10T07:43:15.037Z,7800
2018-08-10T07:44:01.850Z,7984
2018-08-10T07:46:06.764Z,7840
2018-08-10T07:46:47.303Z,7420
2018-08-10T07:47:27.816Z,6168
2018-08-10T07:48:08.343Z,5028
2018-08-10T07:50:42.186Z,7368
2018-08-10T07:51:22.736Z,7152
2018-08-10T07:52:04.257Z,7044
2018-08-10T07:52:44.734Z,6708
2018-08-10T07:53:25.307Z,6972
2018-08-10T07:54:05.767Z,4480
2018-08-10T07:54:46.315Z,4396
2018-08-10T07:55:26.772Z,7020
2018-08-10T07:56:07.478Z,6932
2018-08-10T07:56:47.979Z,6648
2018-08-10T07:57:28.459Z,6504
2018-08-10T07:58:08.998Z,6420
2018-08-10T07:58:49.450Z,6388
2018-08-10T07:59:30.164Z,6424
2018-08-10T08:00:10.665Z,6356
2018-08-10T08:00:51.211Z,6228
2018-08-10T08:01:31.712Z,6220
2018-08-10T08:02:12.227Z,6084
2018-08-10T08:02:52.672Z,5880
2018-08-10T08:03:33.161Z,6028
2018-08-10T08:04:13.725Z,6296
2018-08-10T08:04:54.234Z,6100
2018-08-10T08:05:34.712Z,5796
2018-08-10T08:06:15.398Z,5640
2018-08-10T08:06:55.754Z,5560
2018-08-10T08:07:36.246Z,5572
2018-08-10T08:08:16.780Z,5540
2018-08-10T08:08:57.300Z,5456
2018-08-10T08:09:37.739Z,5492
2018-08-10T08:10:18.277Z,5608
2018-08-10T08:10:58.767Z,5616
2018-08-10T08:11:39.238Z,5544
2018-08-10T08:12:20.118Z,5672
2018-08-10T08:13:00.640Z,4996
2018-08-10T08:13:41.934Z,5204
2018-08-10T08:14:22.349Z,4516
2018-08-10T08:15:02.828Z,4592
2018-08-10T08:15:43.384Z,4404
2018-08-10T08:16:23.938Z,4240
2018-08-10T08:17:04.415Z,4100
2018-08-10T08:17:44.898Z,3992
2018-08-10T08:18:25.386Z,3920
2018-08-10T08:19:06.229Z,3248
2018-08-10T08:19:46.712Z,2712
2018-08-10T08:20:27.211Z,2656
2018-08-10T08:21:07.727Z,2684
2018-08-10T08:21:48.204Z,2992
2018-08-10T08:22:28.683Z,3144
2018-08-10T08:23:09.189Z,3192
2018-08-10T08:23:49.755Z,4112
2018-08-10T08:24:30.258Z,4172
2018-08-10T08:25:10.744Z,4344
2018-08-10T08:25:51.253Z,4308
2018-08-10T08:26:31.696Z,4348
2018-08-10T08:27:12.273Z,4444
2018-08-10T08:27:52.716Z,4520
2018-08-10T08:28:33.224Z,4836
2018-08-10T08:29:13.689Z,4808
2018-08-10T08:30:01.496Z,4992
2018-08-10T08:30:42.009Z,5196
2018-08-10T08:31:22.469Z,5056
2018-08-10T08:32:02.953Z,4988
2018-08-10T08:32:43.458Z,5096
2018-08-10T08:33:24.015Z,4920
2018-08-10T08:34:04.480Z,4780
2018-08-10T08:34:45.026Z,4580
2018-08-10T08:35:25.489Z,4732
2018-08-10T08:36:05.951Z,4768
2018-08-10T08:36:46.436Z,4180
2018-08-10T08:37:26.956Z,5108
2018-08-10T08:38:07.479Z,5456
2018-08-10T08:38:47.941Z,5696
2018-08-10T08:39:28.428Z,5860
2018-08-10T08:40:08.933Z,5852
2018-08-10T08:40:50.193Z,5672
2018-08-10T08:41:30.624Z,5240
2018-08-10T08:42:11.108Z,4828
2018-08-10T08:42:51.632Z,4188
2018-08-10T08:43:32.107Z,3756
2018-08-10T08:44:12.648Z,3648
2018-08-10T08:44:53.853Z,3652
2018-08-10T08:45:34.686Z,3516
2018-08-10T08:46:15.667Z,3392
2018-08-10T08:46:55.922Z,3396
2018-08-10T08:47:36.396Z,3388
2018-08-10T08:48:17.101Z,3424
2018-08-10T08:48:57.634Z,3624
2018-08-10T08:49:38.086Z,3968
2018-08-10T08:50:18.605Z,4392
2018-08-10T08:50:59.104Z,4636
2018-08-10T08:51:39.556Z,4724
2018-08-10T08:52:20.064Z,4704
2018-08-10T08:53:00.540Z,4804
2018-08-10T08:53:42.871Z,5588
2018-08-10T08:54:23.320Z,5620
2018-08-10T08:55:03.909Z,5648
2018-08-10T08:55:44.486Z,5600
2018-08-10T08:56:24.908Z,5540
2018-08-10T08:57:05.405Z,5572
2018-08-10T08:57:46.195Z,5644
2018-08-10T08:58:26.689Z,5772
2018-08-10T08:59:07.179Z,5804
2018-08-10T08:59:47.716Z,5964
2018-08-10T09:00:28.207Z,6116
2018-08-10T09:01:08.671Z,6004
2018-08-10T09:01:49.144Z,5960
2018-08-10T09:02:29.638Z,6172
2018-08-10T09:03:10.178Z,6132
2018-08-10T09:03:50.616Z,5316
2018-08-10T09:04:31.522Z,5236
2018-08-10T09:05:11.989Z,5032
2018-08-10T09:05:52.480Z,5364
2018-08-10T09:06:32.953Z,4916
2018-08-10T09:07:13.505Z,4852
2018-08-10T09:07:53.952Z,4584
2018-08-10T09:08:34.483Z,5008
2018-08-10T09:09:15.349Z,4596
2018-08-10T09:09:55.869Z,4736
2018-08-10T09:10:38.835Z,4820
2018-08-10T09:11:20.156Z,4984
2018-08-10T09:12:00.677Z,5476
2018-08-10T09:12:41.325Z,5068
2018-08-10T09:13:21.811Z,5236
2018-08-10T09:14:02.462Z,5440
2018-08-10T09:14:43.216Z,6116
2018-08-10T09:15:23.791Z,5904
2018-08-10T09:16:04.681Z,5980
2018-08-10T09:16:45.118Z,6260
2018-08-10T09:17:25.809Z,6592
2018-08-10T09:18:06.395Z,6664
2018-08-10T09:18:46.697Z,6412
2018-08-10T09:19:27.276Z,6088
2018-08-10T09:20:08.745Z,4904
2018-08-10T09:20:49.059Z,4456
2018-08-10T09:21:29.509Z,4720
2018-08-10T09:22:10.132Z,4836
2018-08-10T09:22:50.931Z,4524
2018-08-10T09:23:31.319Z,3768
2018-08-10T09:24:11.808Z,4184
2018-08-10T09:24:52.280Z,3636
2018-08-10T09:25:32.815Z,4192
2018-08-10T09:26:13.447Z,4124
2018-08-10T09:26:54.795Z,4156
2018-08-10T09:27:35.397Z,3912
2018-08-10T09:28:15.939Z,3540
2018-08-10T09:28:56.481Z,4124
2018-08-10T09:29:37.349Z,3700
2018-08-10T09:30:32.883Z,3552